• Join FlightAware (Why Join?)
  • Login
  • US Flag 
01:03PM EDT


 

Airport Tracker/Info


-or-


 

Live Flight TrackerFlight Track Log ✈ THY1073 ✈ 16-May-2013 ✈ LTBA / IST - LATI / TIA

Flight Track Log - Related Links

Times and Time Zones

All times are in EDT time to prevent confusion due to time zone crossing. See the THY1073 flight status page for this flight to view local times or setup timezone preferences in your user account.

Time Position Orientation Groundspeed Altitude Reporting Facility
EDT Latitude Longitude Course Direction KTS MPH feet Rate Location/Type
01:12AM 41.2756 24.4877 277° West  Level Estimated
01:13AM 41.2821 24.3558 274° West  Level Estimated
01:14AM 41.2884 24.2258 274° West  Level Estimated
01:15AM 41.2945 24.0958 274° West  Level Estimated
01:16AM 41.3005 23.9657 274° West  Level Estimated
01:17AM 41.3063 23.8356 273° West  Level Estimated
01:18AM 41.3120 23.7055 273° West  Level Estimated
01:19AM 41.3175 23.5754 273° West  Level Estimated
01:20AM 41.3229 23.4452 273° West  Level Estimated
01:21AM 41.3281 23.3150 273° West  Level Estimated
01:22AM 41.3332 23.1848 273° West  Level Estimated
01:23AM 41.3382 23.0546 273° West  Level Estimated
01:24AM 41.3430 22.9244 273° West  Level Estimated
01:25AM 41.3476 22.7941 273° West  Level Estimated
01:26AM 41.3521 22.6638 273° West  Level Estimated
01:27AM 41.3565 22.5336 273° West  Level Estimated
01:28AM 41.3607 22.4032 273° West  Level Estimated
01:29AM 41.3648 22.2729 272° West  Level Estimated
01:30AM 41.3687 22.1426 272° West  Level Estimated
01:31AM 41.3725 22.0122 272° West  Level Estimated
01:32AM 41.3761 21.8818 272° West  Level Estimated
01:33AM 41.3796 21.7514 272° West  Level Estimated
01:34AM 41.3829 21.6210 272° West  Level Estimated
01:35AM 41.3861 21.4906 272° West  Level Estimated
01:36AM 41.3891 21.3602 272° West  Level Estimated
01:37AM 41.3920 21.2298 272° West  Level Estimated
01:38AM 41.3948 21.0993 272° West  Level Estimated
01:39AM 41.3974 20.9689 272° West  Level Estimated
01:40AM 41.3998 20.8384 271° West  Level Estimated
01:41AM 41.4021 20.7079 271° West  Level Estimated
01:42AM 41.4043 20.5774 271° West  Level Estimated
01:43AM 41.4063 20.4469 271° West  Level Estimated
01:44AM 41.4081 20.3164 271° West  Level Estimated
01:45AM 41.4099 20.1859 271° West  Level Estimated
01:46AM 41.4114 20.0554 271° West  Level Estimated
01:47AM 41.4128 19.9249 271° West  Level Estimated
01:48AM 41.4141 19.7943 271° West  Level Estimated
01:49AM 41.4147 19.7206 271° West  Level Estimated
01:50AM 41.4147 19.7206 21° North  Level Estimated
01:51AM 41.4147 19.7206 21° North  Level Estimated
01:52AM 41.4147 19.7206 21° North  Level Estimated
01:53AM 41.4147 19.7206 21° North  Level Estimated
01:54AM 41.4147 19.7206 21° North  Level Estimated
01:55AM 41.4147 19.7206 21° North  Level Estimated
01:56AM 41.4147 19.7206 21° North  Level Estimated
01:57AM 41.4147 19.7206 21° North  Level Estimated
01:58AM 41.4147 19.7206 21° North  Level Estimated
01:59AM 41.4147 19.7206 21° North  Level Estimated
02:00AM 41.4147 19.7206 21° North  Level Estimated
02:01AM 41.4147 19.7206 21° North  Level Estimated
02:02AM 41.4147 19.7206 21° North  Level Estimated
02:03AM 41.4147 19.7206 21° North  Level Estimated
02:04AM 41.4147 19.7206 21° North  Level Estimated
02:05AM 41.4147 19.7206 21° North  Level Estimated